.
WxDataArchive / Data Records for 2008-07-28
2008-07-27 July 2008 2008-07-29

Data Records for Monday, 28 July 2008

Time	Temp	Chill	HIndex	Humid	Dewpt	 Wind 	HiWind	WindDir	Rain 	Barom 
-----	----	-----	------	-----	-----	------	------	-------	-----	----- 
00:00	67.3	67.3	67.3	77	59.8	0	0	---	0.00	29.807 
00:05	67.1	67.1	67.1	78	60.0	0	0	---	0.00	29.805 
00:10	66.9	66.9	66.9	79	60.2	0	0	---	0.00	29.805 
00:15	66.8	66.8	66.8	80	60.4	0	0	---	0.00	29.805 
00:20	66.8	66.8	66.8	80	60.4	0	0	---	0.00	29.806 
00:25	66.8	66.8	66.8	81	60.8	0	0	---	0.00	29.806 
00:30	66.8	66.8	66.8	81	60.8	0	0	---	0.00	29.803 
00:35	66.8	66.8	66.8	81	60.8	0	0	---	0.00	29.798 
00:40	66.8	66.8	66.8	81	60.8	0	0	---	0.00	29.796 
00:45	66.8	66.8	66.8	81	60.8	0	0	---	0.00	29.803 
00:50	66.6	66.6	66.6	81	60.6	0	0	---	0.00	29.803 
00:55	66.6	66.6	66.6	81	60.6	0	0	---	0.00	29.802 
01:00	66.6	66.6	66.6	82	60.9	0	0	---	0.00	29.800 
01:05	66.6	66.6	66.6	82	60.9	0	0	---	0.00	29.798 
01:10	66.4	66.4	66.4	82	60.7	0	0	---	0.00	29.798 
01:15	66.4	66.4	66.4	82	60.7	0	0	---	0.00	29.799 
01:20	66.4	66.4	66.4	82	60.7	0	0	---	0.00	29.797 
01:25	66.4	66.4	66.4	82	60.7	0	0	---	0.00	29.796 
01:30	66.4	66.4	66.4	82	60.7	0	0	---	0.00	29.795 
01:35	66.3	66.3	66.3	82	60.6	0	0	---	0.00	29.794 
01:40	66.3	66.3	66.3	82	60.6	0	0	---	0.00	29.797 
01:45	66.1	66.1	66.1	82	60.4	0	0	---	0.00	29.796 
01:50	66.0	66.0	66.0	83	60.7	0	0	---	0.00	29.794 
01:55	66.0	66.0	66.0	83	60.7	0	0	---	0.00	29.795 
02:00	65.8	65.8	65.8	83	60.5	0	0	---	0.00	29.792 
02:05	65.8	65.8	65.8	84	60.8	0	0	---	0.00	29.790 
02:10	65.6	65.6	65.6	84	60.6	0	0	---	0.00	29.788 
02:15	65.5	65.5	65.5	84	60.5	0	0	---	0.00	29.785 
02:20	65.5	65.5	65.5	84	60.5	0	0	---	0.00	29.782 
02:25	65.3	65.3	65.3	84	60.3	0	0	---	0.00	29.785 
02:30	65.2	65.2	65.2	84	60.2	0	0	---	0.00	29.786 
02:35	65.0	65.0	65.0	85	60.4	0	0	---	0.00	29.785 
02:40	65.0	65.0	65.0	85	60.4	0	0	---	0.00	29.779 
02:45	64.8	64.8	64.8	85	60.2	0	0	---	0.00	29.777 
02:50	64.7	64.7	64.7	86	60.4	0	0	---	0.00	29.775 
02:55	64.7	64.7	64.7	86	60.4	0	0	---	0.00	29.775 
03:00	64.5	64.5	64.5	86	60.2	0	0	---	0.00	29.777 
03:05	64.5	64.5	64.5	86	60.2	0	0	---	0.00	29.777 
03:10	64.3	64.3	64.3	87	60.3	0	0	---	0.00	29.777 
03:15	64.3	64.3	64.3	87	60.3	0	0	---	0.00	29.779 
03:20	64.2	64.2	64.2	87	60.2	0	0	---	0.00	29.778 
03:25	64.2	64.2	64.2	88	60.6	0	0	---	0.00	29.779 
03:30	64.0	64.0	64.0	88	60.4	0	0	---	0.00	29.782 
03:35	64.0	64.0	64.0	88	60.4	0	0	---	0.00	29.787 
03:40	63.9	63.9	63.9	88	60.3	0	0	---	0.00	29.785 
03:45	63.9	63.9	63.9	89	60.6	0	0	---	0.00	29.789 
03:50	63.7	63.7	63.7	89	60.4	0	0	---	0.00	29.790 
03:55	63.5	63.5	63.5	89	60.2	0	0	---	0.00	29.791 
04:00	63.4	63.4	63.4	89	60.1	0	0	---	0.00	29.791 
04:05	63.2	63.2	63.2	89	59.9	0	0	---	0.00	29.792 
04:10	63.1	63.1	63.1	90	60.1	0	0	---	0.00	29.792 
04:15	63.1	63.1	63.1	90	60.1	0	0	---	0.00	29.795 
04:20	62.9	62.9	62.9	90	59.9	0	0	---	0.00	29.800 
04:25	62.7	62.7	62.7	90	59.7	0	0	---	0.00	29.806 
04:30	62.6	62.6	62.6	91	59.9	0	0	---	0.00	29.808 
04:35	62.6	62.6	62.6	91	59.9	0	0	---	0.00	29.808 
04:40	62.4	62.4	62.4	91	59.7	0	0	---	0.00	29.809 
04:45	62.4	62.4	62.4	92	60.0	0	0	---	0.00	29.811 
04:50	62.4	62.4	62.4	92	60.0	0	0	---	0.00	29.816 
04:55	62.4	62.4	62.4	92	60.0	0	0	---	0.00	29.823 
05:00	62.3	62.3	62.3	92	59.9	0	0	---	0.00	29.825 
05:05	62.3	62.3	62.3	92	59.9	0	0	---	0.00	29.827 
05:10	62.3	62.3	62.3	92	59.9	0	0	---	0.00	29.828 
05:15	62.4	62.4	62.4	93	60.3	0	0	---	0.00	29.827 
05:20	62.6	62.6	62.6	93	60.5	0	0	---	0.00	29.825 
05:25	62.7	62.7	62.7	92	60.3	0	0	---	0.00	29.826 
05:30	62.7	62.7	62.7	92	60.3	0	0	---	0.00	29.827 
05:35	62.9	62.9	62.9	92	60.5	0	0	---	0.00	29.825 
05:40	62.9	62.9	62.9	92	60.5	0	0	---	0.00	29.823 
05:45	63.1	63.1	63.1	92	60.7	0	0	---	0.00	29.824 
05:50	63.2	63.2	63.2	91	60.5	0	0	---	0.00	29.823 
05:55	63.2	63.2	63.2	91	60.5	0	0	---	0.00	29.823 
06:00	63.4	63.4	63.4	91	60.7	0	0	---	0.00	29.822 
06:05	63.5	63.5	63.5	90	60.5	0	0	---	0.00	29.820 
06:10	63.7	63.7	63.7	90	60.7	0	0	---	0.00	29.820 
06:15	63.9	63.9	63.9	90	60.9	0	0	---	0.00	29.824 
06:20	64.0	64.0	64.0	89	60.7	0	0	---	0.00	29.824 
06:25	64.2	64.2	64.2	89	60.9	0	0	---	0.00	29.824 
06:30	64.3	64.3	64.3	88	60.7	0	0	---	0.00	29.826 
06:35	64.7	64.7	64.7	87	60.7	0	0	---	0.00	29.824 
06:40	65.5	65.5	65.5	86	61.2	0	1	315	0.00	29.823 
06:45	66.1	66.1	66.1	84	61.1	0	1	315	0.00	29.820 
06:50	66.8	66.8	66.8	83	61.5	0	1	315	0.00	29.815 
06:55	67.4	67.4	67.4	81	61.4	0	1	315	0.00	29.811 
07:00	68.1	68.1	68.1	79	61.3	0	1	315	0.00	29.808 
07:05	68.8	68.8	68.8	77	61.3	0	1	315	0.00	29.810 
07:10	69.4	69.4	69.4	75	61.1	0	1	315	0.00	29.808 
07:15	69.9	69.9	69.9	74	61.2	0	1	315	0.00	29.805 
07:20	70.3	70.3	70.3	73	61.2	0	1	315	0.00	29.804 
07:25	70.8	70.8	70.8	73	61.7	0	1	315	0.00	29.802 
07:30	71.1	71.1	71.1	73	62.0	0	1	315	0.00	29.804 
07:35	71.5	71.5	71.5	71	61.6	0	2	315	0.00	29.804 
07:40	71.5	71.5	71.5	70	61.2	0	2	315	0.00	29.802 
07:45	71.8	71.8	71.8	70	61.5	0	1	315	0.00	29.802 
07:50	72.0	72.0	72.0	69	61.3	0	1	315	0.00	29.801 
07:55	72.3	72.3	72.3	69	61.5	0	2	315	0.00	29.803 
08:00	72.3	72.3	72.3	69	61.5	1	2	315	0.00	29.805 
08:05	72.7	72.7	72.7	69	61.9	0	2	315	0.00	29.806 
08:10	73.0	73.0	73.0	67	61.4	0	1	315	0.00	29.805 
08:15	73.3	73.3	73.3	69	62.5	0	1	315	0.00	29.806 
08:20	73.7	73.7	73.7	66	61.6	0	1	315	0.00	29.805 
08:25	74.2	74.2	74.2	66	62.1	0	1	315	0.00	29.804 
08:30	74.6	74.6	74.6	64	61.6	0	1	315	0.00	29.801 
08:35	74.6	74.6	74.6	64	61.6	0	1	315	0.00	29.802 
08:40	74.7	74.7	74.7	64	61.7	0	1	315	0.00	29.805 
08:45	75.1	75.1	77.3	62	61.2	0	1	315	0.00	29.804 
08:50	75.6	75.6	77.7	61	61.2	0	1	315	0.00	29.804 
08:55	75.6	75.6	77.7	61	61.2	0	1	315	0.00	29.803 
09:00	75.6	75.6	77.6	63	62.1	0	2	315	0.00	29.805 
09:05	76.0	76.0	78.0	62	62.0	0	2	315	0.00	29.808 
09:10	77.0	77.0	78.8	63	63.4	0	1	315	0.00	29.807 
09:15	78.1	78.1	79.7	58	62.1	0	1	315	0.00	29.807 
09:20	78.8	78.8	80.3	57	62.3	0	2	315	0.00	29.807 
09:25	78.8	78.8	80.1	55	61.2	1	3	315	0.00	29.805 
09:30	79.2	79.2	80.7	58	63.1	0	1	112	0.00	29.806 
09:35	79.4	79.4	80.7	55	61.8	1	3	248	0.00	29.805 
09:40	79.4	79.4	80.7	55	61.8	0	2	225	0.00	29.805 
09:45	79.8	79.8	81.1	55	62.2	0	2	202	0.00	29.804 
09:50	79.4	79.4	80.8	56	62.3	0	2	202	0.00	29.805 
09:55	79.2	79.2	80.7	58	63.1	0	2	202	0.00	29.807 
10:00	79.2	79.2	80.7	57	62.6	0	2	202	0.00	29.806 
10:05	79.0	79.0	80.5	58	62.9	0	2	202	0.00	29.805 
10:10	79.2	79.2	80.5	55	61.6	0	1	202	0.00	29.806 
10:15	79.6	79.6	80.9	55	62.0	0	2	225	0.00	29.805 
10:20	79.2	79.2	80.6	56	62.1	1	2	225	0.00	29.805 
10:25	79.4	79.4	80.9	58	63.3	0	1	225	0.00	29.805 
10:30	79.8	79.8	81.1	55	62.2	0	2	225	0.00	29.805 
10:35	80.1	80.1	81.4	55	62.4	0	1	225	0.00	29.806 
10:40	80.5	80.5	82.1	57	63.8	0	2	225	0.00	29.803 
10:45	81.2	81.2	82.5	54	62.9	1	3	112	0.00	29.801 
10:50	81.4	81.4	82.7	54	63.1	0	2	135	0.00	29.804 
10:55	81.4	81.4	82.8	55	63.7	1	4	135	0.00	29.804 
11:00	81.6	81.6	82.9	54	63.3	1	2	90	0.00	29.804 
11:05	81.6	81.6	83.1	55	63.8	2	4	90	0.00	29.807 
11:10	81.4	81.4	82.5	53	62.6	1	4	112	0.00	29.806 
11:15	81.8	81.8	83.3	55	64.0	0	3	112	0.00	29.807 
11:20	81.6	81.6	82.6	52	62.2	1	4	292	0.00	29.806 
11:25	81.6	81.6	82.8	53	62.8	1	2	270	0.00	29.804 
11:30	82.2	82.2	83.5	53	63.3	1	3	112	0.00	29.804 
11:35	82.4	82.4	83.7	53	63.5	1	4	112	0.00	29.804 
11:40	82.4	82.4	83.5	52	63.0	2	4	112	0.00	29.804 
11:45	82.2	82.2	83.5	53	63.3	2	5	90	0.00	29.805 
11:50	81.4	81.4	82.7	54	63.1	3	6	90	0.00	29.805 
11:55	81.4	81.4	82.4	52	62.1	1	3	180	0.00	29.805 
12:00	81.6	81.6	83.1	55	63.8	1	4	90	0.00	29.804 
12:05	82.0	82.0	83.7	56	64.7	1	4	90	0.00	29.803 
12:10	82.8	82.8	84.4	54	64.4	1	4	90	0.00	29.802 
12:15	83.0	83.0	84.3	52	63.5	1	2	90	0.00	29.800 
12:20	83.4	83.4	84.6	51	63.3	1	4	202	0.00	29.802 
12:25	83.8	83.8	85.3	52	64.3	2	4	135	0.00	29.802 
12:30	83.4	83.4	85.2	54	65.0	2	5	90	0.00	29.802 
12:35	83.2	83.2	84.9	54	64.8	1	4	112	0.00	29.797 
12:40	83.4	83.4	85.0	53	64.4	2	5	112	0.00	29.799 
12:45	83.4	83.4	85.0	53	64.4	2	4	112	0.00	29.798 
12:50	83.6	83.6	85.7	55	65.7	1	4	112	0.00	29.799 
12:55	84.1	84.1	85.9	53	65.1	1	5	112	0.00	29.800 
13:00	84.1	84.1	85.7	52	64.5	1	3	112	0.00	29.800 
13:05	83.6	83.6	85.0	52	64.1	2	4	112	0.00	29.802 
13:10	83.0	83.0	84.7	54	64.6	1	4	90	0.00	29.802 
13:15	83.0	83.0	84.9	55	65.1	1	6	68	0.00	29.799 
13:20	83.8	83.8	86.2	56	66.4	1	3	90	0.00	29.799 
13:25	83.8	83.8	85.3	52	64.3	1	3	248	0.00	29.799 
13:30	83.8	83.8	85.5	53	64.8	2	5	135	0.00	29.793 
13:35	83.8	83.8	85.5	53	64.8	1	3	90	0.00	29.796 
13:40	83.6	83.6	85.2	53	64.6	1	2	90	0.00	29.795 
13:45	83.4	83.4	85.2	54	65.0	1	4	90	0.00	29.795 
13:50	83.2	83.2	84.9	54	64.8	1	3	90	0.00	29.796 
13:55	83.4	83.4	85.4	55	65.5	1	2	135	0.00	29.801 
14:00	83.8	83.8	85.7	54	65.3	1	4	248	0.00	29.797 
14:05	84.1	84.1	86.7	56	66.7	1	2	225	0.00	29.801 
14:10	84.7	84.7	86.8	53	65.6	1	3	225	0.00	29.795 
14:15	84.9	84.9	86.8	52	65.3	0	1	315	0.00	29.793 
14:20	85.3	85.3	86.9	50	64.5	1	3	270	0.00	29.792 
14:25	85.3	85.3	86.9	50	64.5	1	3	0	0.00	29.792 
14:30	84.5	84.5	86.0	51	64.4	0	2	0	0.00	29.793 
14:35	83.4	83.4	85.0	53	64.4	1	3	22	0.00	29.794 
14:40	82.6	82.6	84.1	54	64.2	1	2	45	0.00	29.796 
14:45	82.4	82.4	83.9	54	64.1	1	5	90	0.00	29.795 
14:50	83.0	83.0	84.1	51	63.0	1	3	90	0.00	29.793 
14:55	84.0	84.0	85.8	53	65.0	1	2	68	0.00	29.793 
15:00	84.7	84.7	86.5	52	65.1	1	4	68	0.00	29.791 
15:05	85.1	85.1	86.6	50	64.3	1	4	90	0.00	29.791 
15:10	84.9	84.9	86.3	50	64.2	1	2	90	0.00	29.792 
15:15	84.7	84.7	86.3	51	64.5	1	2	90	0.00	29.790 
15:20	84.7	84.7	86.0	50	64.0	1	3	90	0.00	29.789 
15:25	84.1	84.1	85.5	51	64.0	1	3	90	0.00	29.790 
15:30	83.4	83.4	84.6	51	63.3	0	2	90	0.00	29.792 
15:35	83.2	83.2	84.3	51	63.2	0	1	90	0.00	29.792 
15:40	83.4	83.4	85.0	53	64.4	0	2	90	0.00	29.792 
15:45	84.1	84.1	85.7	52	64.5	1	3	90	0.00	29.790 
15:50	84.7	84.7	85.8	49	63.4	0	2	90	0.00	29.789 
15:55	85.1	85.1	86.4	49	63.8	0	2	90	0.00	29.790 
16:00	85.7	85.7	86.7	47	63.1	1	2	90	0.00	29.792 
16:05	86.1	86.1	87.2	47	63.5	0	2	90	0.00	29.797 
16:10	86.5	86.5	87.8	47	63.8	0	2	90	0.00	29.799 
16:15	86.3	86.3	87.2	46	63.0	0	1	90	0.00	29.799 
16:20	85.7	85.7	86.9	48	63.7	0	2	90	0.00	29.801 
16:25	84.9	84.9	86.1	49	63.6	1	3	90	0.00	29.802 
16:30	84.3	84.3	86.2	53	65.3	0	1	90	0.00	29.798 
16:35	84.3	84.3	86.0	52	64.7	0	1	90	0.00	29.798 
16:40	84.9	84.9	86.1	49	63.6	1	3	90	0.00	29.799 
16:45	85.1	85.1	86.6	50	64.3	1	4	90	0.00	29.802 
16:50	85.3	85.3	86.6	49	63.9	1	3	90	0.00	29.803 
16:55	85.5	85.5	87.2	50	64.7	0	2	90	0.00	29.802 
17:00	85.5	85.5	86.6	48	63.5	0	1	90	0.00	29.803 
17:05	85.1	85.1	86.1	48	63.2	0	2	90	0.00	29.803 
17:10	84.7	84.7	86.0	50	64.0	0	1	90	0.00	29.803 
17:15	84.3	84.3	85.5	50	63.6	0	2	90	0.00	29.804 
17:20	84.1	84.1	85.3	50	63.4	0	2	90	0.00	29.806 
17:25	84.1	84.1	85.3	50	63.4	0	2	90	0.00	29.807 
17:30	84.0	84.0	85.1	50	63.3	0	1	90	0.00	29.807 
17:35	84.0	84.0	85.6	52	64.4	0	1	90	0.00	29.807 
17:40	84.0	84.0	85.3	51	63.9	0	1	90	0.00	29.807 
17:45	84.0	84.0	85.1	50	63.3	0	2	90	0.00	29.809 
17:50	84.0	84.0	85.3	51	63.9	0	1	90	0.00	29.808 
17:55	83.8	83.8	84.9	50	63.1	0	1	90	0.00	29.807 
18:00	83.8	83.8	84.9	50	63.1	0	1	90	0.00	29.807 
18:05	83.6	83.6	84.8	51	63.5	0	2	90	0.00	29.802 
18:10	83.6	83.6	85.0	52	64.1	0	2	90	0.00	29.802 
18:15	83.2	83.2	84.7	53	64.3	1	4	90	0.00	29.805 
18:20	83.0	83.0	84.5	53	64.1	0	1	90	0.00	29.805 
18:25	83.0	83.0	84.3	52	63.5	0	1	90	0.00	29.806 
18:30	83.0	83.0	84.5	53	64.1	0	1	90	0.00	29.806 
18:35	82.8	82.8	84.4	54	64.4	0	2	90	0.00	29.807 
18:40	82.8	82.8	84.6	55	65.0	0	1	90	0.00	29.807 
18:45	82.6	82.6	84.3	55	64.8	0	1	90	0.00	29.804 
18:50	82.4	82.4	84.1	55	64.6	0	1	90	0.00	29.803 
18:55	82.2	82.2	83.8	55	64.4	0	2	90	0.00	29.805 
19:00	82.0	82.0	83.7	56	64.7	0	1	90	0.00	29.805 
19:05	81.6	81.6	83.4	57	64.9	0	0	---	0.00	29.801 
19:10	81.2	81.2	83.0	58	65.0	0	0	---	0.00	29.804 
19:15	81.1	81.1	82.9	58	64.9	0	0	---	0.00	29.807 
19:20	80.9	80.9	82.8	59	65.2	0	0	---	0.00	29.809 
19:25	80.5	80.5	82.4	60	65.3	0	0	---	0.00	29.812 
19:30	80.3	80.3	82.3	61	65.6	0	0	---	0.00	29.814 
19:35	80.1	80.1	82.2	62	65.9	0	0	---	0.00	29.813 
19:40	79.8	79.8	81.8	62	65.6	0	0	---	0.00	29.814 
19:45	79.4	79.4	81.4	63	65.7	0	0	---	0.00	29.816 
19:50	79.2	79.2	81.3	65	66.4	0	0	---	0.00	29.818 
19:55	78.8	78.8	80.8	65	66.0	0	0	---	0.00	29.819 
20:00	78.5	78.5	80.5	66	66.2	0	0	---	0.00	29.819 
20:05	78.1	78.1	80.0	67	66.2	0	0	---	0.00	29.817 
20:10	77.7	77.7	79.6	68	66.3	0	0	---	0.00	29.816 
20:15	77.4	77.4	79.2	69	66.4	0	0	---	0.00	29.818 
20:20	77.0	77.0	78.8	69	66.0	0	0	---	0.00	29.819 
20:25	76.7	76.7	78.4	70	66.2	0	0	---	0.00	29.820 
20:30	76.5	76.5	78.2	71	66.4	0	0	---	0.00	29.823 
20:35	76.0	76.0	77.5	72	66.3	0	0	---	0.00	29.822 
20:40	75.8	75.8	77.3	72	66.1	0	0	---	0.00	29.823 
20:45	75.4	75.4	76.8	73	66.1	0	0	---	0.00	29.827 
20:50	75.1	75.1	76.4	74	66.2	0	0	---	0.00	29.831 
20:55	74.9	74.9	74.9	75	66.4	0	0	---	0.00	29.833 
21:00	74.6	74.6	74.6	76	66.5	0	0	---	0.00	29.834 
21:05	74.4	74.4	74.4	76	66.3	0	0	---	0.00	29.833 
21:10	74.0	74.0	74.0	77	66.3	0	0	---	0.00	29.833 
21:15	73.9	73.9	73.9	77	66.2	0	0	---	0.00	29.833 
21:20	73.5	73.5	73.5	78	66.2	0	0	---	0.00	29.835 
21:25	73.3	73.3	73.3	79	66.4	0	0	---	0.00	29.835 
21:30	73.2	73.2	73.2	80	66.6	0	0	---	0.00	29.835 
21:35	73.0	73.0	73.0	81	66.8	0	0	---	0.00	29.836 
21:40	73.0	73.0	73.0	81	66.8	0	0	---	0.00	29.836 
21:45	72.8	72.8	72.8	81	66.6	0	0	---	0.00	29.836 
21:50	72.7	72.7	72.7	81	66.5	0	0	---	0.00	29.837 
21:55	72.5	72.5	72.5	81	66.3	0	0	---	0.00	29.838 
22:00	72.3	72.3	72.3	82	66.5	0	0	---	0.00	29.840 
22:05	72.1	72.1	72.1	82	66.3	0	0	---	0.00	29.840 
22:10	72.0	72.0	72.0	82	66.2	0	0	---	0.00	29.841 
22:15	71.8	71.8	71.8	82	66.0	0	0	---	0.00	29.841 
22:20	71.6	71.6	71.6	83	66.2	0	0	---	0.00	29.842 
22:25	71.5	71.5	71.5	84	66.4	0	0	---	0.00	29.845 
22:30	71.3	71.3	71.3	85	66.5	0	0	---	0.00	29.844 
22:35	71.1	71.1	71.1	85	66.4	0	0	---	0.00	29.843 
22:40	70.9	70.9	70.9	86	66.5	0	0	---	0.00	29.842 
22:45	70.8	70.8	70.8	86	66.4	0	0	---	0.00	29.841 
22:50	70.6	70.6	70.6	87	66.5	0	0	---	0.00	29.840 
22:55	70.4	70.4	70.4	87	66.3	0	0	---	0.00	29.838 
23:00	70.3	70.3	70.3	87	66.2	0	0	---	0.00	29.840 
23:05	70.1	70.1	70.1	88	66.4	0	0	---	0.00	29.841 
23:10	70.1	70.1	70.1	88	66.4	0	0	---	0.00	29.840 
23:15	69.9	69.9	69.9	88	66.2	0	0	---	0.00	29.841 
23:20	69.8	69.8	69.8	88	66.1	0	0	---	0.00	29.844 
23:25	69.6	69.6	69.6	88	65.9	0	0	---	0.00	29.845 
23:30	69.6	69.6	69.6	88	65.9	0	0	---	0.00	29.845 
23:35	69.4	69.4	69.4	88	65.7	0	0	---	0.00	29.849 
23:40	69.3	69.3	69.3	89	65.9	0	0	---	0.00	29.849 
23:45	69.1	69.1	69.1	89	65.7	0	0	---	0.00	29.850 
23:50	69.1	69.1	69.1	90	66.0	0	0	---	0.00	29.849 
23:55	68.9	68.9	68.9	90	65.8	0	0	---	0.00	29.849 

CoCoRaHS
IN-AL-39
A2 Web Hosting
Creative Commons License
GoDaddy
Look for:

loaded 2017-12-13 16:02:32 • last modified 2010-11-18 10:43:29
Privacy PolicyDisclaimer
• wx.awcolley.com is powered by PmWiki v.2002016 •
• all content (unless otherwise noted) © 2017 A W Colley